Arctic Village, AK

1:39 PM AKDT on August 29, 2015 (GMT -0800)
Arctic Village | | Change Station
CLOSE
Current Station
Airport
Location: Arctic Village,
Elevation: 2090 ft
Nearby Weather Stations

Elev 2090 ft 68.11 °N, 145.58 °W | Updated 3 minutes ago

Mostly Cloudy
Mostly Cloudy
36 °F
Feels Like 32 °F
N
5
Wind Variable Wind from SSW

Today
High -- | Low -- °F
--% Chance of Precip.
Yesterday
High -- | Low -- °F
Precip. -- in
5:56 AM 9:27 PM
Full, 100% visible
Pressure 29.40 in
Visibility 5.0 miles
Clouds Scattered Clouds 900 ft
Scattered Clouds 1600 ft
Mostly Cloudy 2200 ft
Windchill 32 °F
Dew Point 32 °F
Humidity 87%
Rainfall 0.04 in
Snow Depth Not available.
UV 2 out of 12
Pollen Not available.
Air Quality Not available.
Flu Activity Not available.
METAR PARC 292136Z AUTO 20004KT 5SM SCT009 SCT016 BKN022 02/00 A2940 RMK AO1
Pressure 29.40 in
Visibility 5.0 miles
Clouds Scattered Clouds 900 ft
Scattered Clouds 1600 ft
Mostly Cloudy 2200 ft
Windchill 32 °F
Dew Point 32 °F
Humidity 87%
Rainfall 0.04 in
Snow Depth Not available.
UV 2 out of 12
Pollen Not available.
Air Quality Not available.
Flu Activity Not available.
METAR PARC 292136Z AUTO 20004KT 5SM SCT009 SCT016 BKN022 02/00 A2940 RMK AO1

10-Day Weather Forecast

×

Almanac

Astronomy

Aug. 29, 2015 Rise Set
Actual Time
Civil Twilight
Nautical Twilight
Astronomical Twilight
Moon
Length of Visible Light
Length of Day
Tomorrow will be .
, % of the Moon is Illuminated

Today's Extremes

State Highs State Lows

Community

WunderPhotos

Upload Photos

1,850,799 photos uploaded!

WunderBlogs® & News

Nearby

Air Quality

  Air Quality AQ Index Pollutant
Not available.

Snow Depth

Station Depth Elevation

Earthquake Activity

City Distance Mag. Time & Date
Minimum magnitude displayed is 2.5.

Coastal Water Temperatures

Place Temperature

Stations

Nearby Weather Stations

Station Location Temp. Windchill Dew Point Humidity Wind Precip. Elev Updated Type